Time;durP1;ratioP1;P1;durP2;ratioP2;P2;SDS_P1;SDS_P2;PMS_P1;PMS_P2;Temp;Humidity;BMP_temperature;BMP_pressure;BME280_temperature;BME280_humidity;BME280_pressure;Samples;Min_cycle;Max_cycle;Signal;HPM_P1;HPM_P2
2021/12/15 00:00:39;;;;;;;45.63;30.77;;;9.50;99.90;;;;;;6218375;23;20174;-84
2021/12/15 00:03:15;;;;;;;52.50;32.97;;;9.60;99.90;;;;;;6218316;23;20253;-85
2021/12/15 00:05:44;;;;;;;50.33;32.00;;;9.80;99.90;;;;;;6218498;23;20724;-86
2021/12/15 00:08:12;;;;;;;54.53;32.30;;;9.70;99.90;;;;;;6218584;23;20171;-85
2021/12/15 00:10:47;;;;;;;59.10;33.67;;;9.60;99.90;;;;;;6218327;23;20179;-84
2021/12/15 00:13:17;;;;;;;52.20;31.83;;;9.60;99.90;;;;;;6218200;23;20237;-87
2021/12/15 00:15:46;;;;;;;55.87;32.43;;;9.70;99.90;;;;;;6218305;23;20166;-86
2021/12/15 00:18:16;;;;;;;53.73;33.77;;;9.60;99.90;;;;;;6217466;23;20170;-85
2021/12/15 00:20:47;;;;;;;57.23;33.90;;;9.60;99.90;;;;;;6217537;23;20169;-86
2021/12/15 00:23:13;;;;;;;55.50;33.07;;;9.60;99.90;;;;;;6217549;23;20514;-84
2021/12/15 00:25:44;;;;;;;56.10;34.93;;;9.60;99.90;;;;;;6216909;23;20209;-85
2021/12/15 00:28:17;;;;;;;65.80;35.00;;;9.70;99.90;;;;;;6217324;23;20163;-87
2021/12/15 00:30:50;;;;;;;69.97;36.23;;;9.60;99.90;;;;;;6216755;23;20171;-86
2021/12/15 00:33:21;;;;;;;61.30;34.20;;;9.70;99.90;;;;;;6217149;23;20241;-87
2021/12/15 00:35:48;;;;;;;62.87;34.63;;;9.60;99.90;;;;;;6217014;23;20175;-84
2021/12/15 00:38:21;;;;;;;63.13;35.37;;;9.60;99.90;;;;;;6217293;23;20197;-86
2021/12/15 00:40:54;;;;;;;59.03;33.97;;;9.60;99.90;;;;;;6217483;23;20167;-85
2021/12/15 00:43:21;;;;;;;61.50;35.07;;;9.70;99.90;;;;;;6217198;23;20169;-85
2021/12/15 00:45:49;;;;;;;64.43;34.40;;;9.70;99.90;;;;;;6216793;23;20528;-85
2021/12/15 00:48:18;;;;;;;62.30;34.43;;;9.80;99.90;;;;;;6216454;23;20253;-83
2021/12/15 00:50:49;;;;;;;62.80;35.37;;;9.70;99.90;;;;;;6216821;23;20171;-84
2021/12/15 00:53:19;;;;;;;61.50;34.63;;;9.70;99.90;;;;;;6217440;23;20171;-83
2021/12/15 00:55:52;;;;;;;69.47;37.63;;;9.60;99.90;;;;;;6217762;23;20652;-84
2021/12/15 00:58:28;;;;;;;64.73;36.67;;;9.50;99.90;;;;;;6217790;23;20170;-86
2021/12/15 01:00:58;;;;;;;68.70;37.23;;;9.50;99.90;;;;;;6218199;23;20166;-88
2021/12/15 01:03:26;;;;;;;68.57;36.23;;;9.50;99.90;;;;;;6219933;23;20253;-87
2021/12/15 01:06:04;;;;;;;79.73;39.17;;;9.50;99.90;;;;;;6219798;23;20535;-85
2021/12/15 01:08:36;;;;;;;71.87;38.77;;;9.50;99.90;;;;;;6220639;23;20167;-88
2021/12/15 01:11:14;;;;;;;73.33;38.83;;;9.50;99.90;;;;;;6220151;23;20431;-86
2021/12/15 01:22:04;;;;;;;77.23;37.87;;;9.40;99.90;;;;;;6221627;23;20161;-86
2021/12/15 01:24:31;;;;;;;72.13;37.87;;;9.40;99.90;;;;;;6220907;23;20210;-85
2021/12/15 01:26:58;;;;;;;74.57;38.77;;;9.30;99.90;;;;;;6220832;23;20169;-86
2021/12/15 01:29:27;;;;;;;79.73;39.47;;;9.30;99.90;;;;;;6219662;23;20621;-85
2021/12/15 01:31:56;;;;;;;73.57;39.07;;;9.30;99.90;;;;;;6222762;23;20178;-86
2021/12/15 01:34:24;;;;;;;72.43;37.87;;;9.40;99.90;;;;;;6220456;23;20178;-87
2021/12/15 01:36:51;;;;;;;80.40;39.00;;;9.40;99.90;;;;;;6220453;23;20635;-87
2021/12/15 01:39:26;;;;;;;72.97;38.00;;;9.50;99.90;;;;;;6218307;23;20311;-85
2021/12/15 01:41:59;;;;;;;74.90;37.80;;;9.50;99.90;;;;;;6215727;23;20174;-85
2021/12/15 01:47:14;;;;;;;74.67;37.93;;;9.40;99.90;;;;;;6216432;23;20229;-87
2021/12/15 01:49:45;;;;;;;72.50;38.13;;;9.50;99.90;;;;;;6216012;23;20257;-86
2021/12/15 01:52:28;;;;;;;75.77;39.17;;;9.50;99.90;;;;;;6216135;23;20175;-87
2021/12/15 01:55:00;;;;;;;79.87;37.80;;;9.50;99.90;;;;;;6216194;23;20170;-89
2021/12/15 01:57:30;;;;;;;76.20;38.63;;;9.50;99.90;;;;;;6215910;23;20170;-87
2021/12/15 02:00:01;;;;;;;69.67;35.90;;;9.60;99.90;;;;;;6215545;23;20184;-87
2021/12/15 02:02:31;;;;;;;66.93;36.53;;;9.50;99.90;;;;;;6214809;23;20614;-85
2021/12/15 02:04:58;;;;;;;64.70;35.00;;;9.50;99.90;;;;;;6215481;23;20205;-86
2021/12/15 02:07:28;;;;;;;68.17;34.90;;;9.40;99.90;;;;;;6216592;23;20233;-87
2021/12/15 02:10:04;;;;;;;87.03;47.10;;;9.40;99.90;;;;;;6214324;23;20399;-83
2021/12/15 02:12:36;;;;;;;70.03;37.63;;;9.40;99.90;;;;;;6216009;23;20194;-84
2021/12/15 02:15:07;;;;;;;68.37;36.00;;;9.50;99.90;;;;;;6215266;23;20253;-82
2021/12/15 02:17:36;;;;;;;69.10;37.90;;;9.50;99.90;;;;;;6215837;23;20188;-85
2021/12/15 02:20:11;;;;;;;69.77;35.70;;;9.40;99.90;;;;;;6215676;23;20625;-85
2021/12/15 02:22:43;;;;;;;72.23;36.10;;;9.50;99.90;;;;;;6215477;23;20494;-85
2021/12/15 02:25:15;;;;;;;64.37;34.97;;;9.50;99.90;;;;;;6215010;23;20198;-84
2021/12/15 02:27:45;;;;;;;62.07;34.27;;;9.50;99.90;;;;;;6215205;23;20163;-86
2021/12/15 02:30:30;;;;;;;63.43;33.77;;;9.50;99.90;;;;;;6215407;23;20173;-84
2021/12/15 02:33:11;;;;;;;69.63;31.60;;;9.50;99.90;;;;;;6215542;23;20205;-87
2021/12/15 02:38:35;;;;;;;61.93;32.40;;;9.40;99.90;;;;;;6215973;23;20165;-85
2021/12/15 02:41:08;;;;;;;57.67;31.17;;;9.40;99.90;;;;;;6215858;23;20163;-85
2021/12/15 02:43:41;;;;;;;54.80;30.67;;;9.40;99.90;;;;;;6215712;23;20167;-84
2021/12/15 02:46:10;;;;;;;58.60;32.10;;;9.30;99.90;;;;;;6215482;23;20202;-84
2021/12/15 02:48:37;;;;;;;51.87;30.07;;;9.40;99.90;;;;;;6215713;23;20171;-84
2021/12/15 02:51:04;;;;;;;58.33;30.63;;;9.40;99.90;;;;;;6215324;23;20173;-85
2021/12/15 02:53:35;;;;;;;59.10;32.37;;;9.40;99.90;;;;;;6215566;23;20170;-85
2021/12/15 02:56:07;;;;;;;58.30;32.47;;;9.40;99.90;;;;;;6215373;23;20239;-83
2021/12/15 02:58:46;;;;;;;59.60;32.03;;;9.40;99.90;;;;;;6215762;23;20171;-86
2021/12/15 03:01:25;;;;;;;59.43;31.93;;;9.40;99.90;;;;;;6215647;23;20174;-85
2021/12/15 03:04:12;;;;;;;61.47;32.87;;;9.40;99.90;;;;;;6215990;23;20198;-85
2021/12/15 03:06:48;;;;;;;60.28;35.50;;;9.40;99.90;;;;;;6215463;23;20395;-84
2021/12/15 03:15:18;;;;;;;61.47;33.77;;;9.40;99.90;;;;;;6215753;23;20554;-85
2021/12/15 03:15:29;;;;;;;57.27;31.67;;;9.40;99.90;;;;;;6217765;23;20580;-84
2021/12/15 03:17:59;;;;;;;56.83;32.43;;;9.50;99.90;;;;;;6216352;23;20254;-86
2021/12/15 03:20:27;;;;;;;56.63;31.90;;;9.50;99.90;;;;;;6217557;23;20163;-84
2021/12/15 03:22:55;;;;;;;56.13;32.50;;;9.50;99.90;;;;;;6217160;23;20162;-84
2021/12/15 03:25:25;;;;;;;53.50;32.43;;;9.60;99.90;;;;;;6216615;23;20627;-84
2021/12/15 03:33:37;;;;;;;54.13;32.43;;;9.60;99.90;;;;;;6217320;23;20629;-85
2021/12/15 03:36:14;;;;;;;57.50;32.27;;;9.50;99.90;;;;;;6217451;23;20231;-86
2021/12/15 03:38:42;;;;;;;55.70;34.10;;;9.40;99.90;;;;;;6217339;23;20525;-84
2021/12/15 03:41:15;;;;;;;61.03;32.70;;;9.50;99.90;;;;;;6217074;23;20167;-84
2021/12/15 03:43:59;;;;;;;57.27;33.10;;;9.40;99.90;;;;;;6217379;23;20252;-83
2021/12/15 03:46:28;;;;;;;56.10;33.53;;;9.40;99.90;;;;;;6217979;23;20589;-85
2021/12/15 03:49:01;;;;;;;56.13;31.83;;;9.50;99.90;;;;;;6217606;23;20178;-84
2021/12/15 03:51:31;;;;;;;54.23;32.90;;;9.50;99.90;;;;;;6217094;23;20167;-84
2021/12/15 03:53:58;;;;;;;50.80;32.23;;;9.60;99.90;;;;;;6217717;23;20175;-84
2021/12/15 03:56:29;;;;;;;53.50;32.67;;;9.50;99.90;;;;;;6217023;23;20249;-84
2021/12/15 03:58:59;;;;;;;52.43;32.13;;;9.60;99.90;;;;;;6217214;23;20171;-85
2021/12/15 04:01:28;;;;;;;54.50;32.73;;;9.60;99.90;;;;;;6215675;23;20181;-84
2021/12/15 04:03:58;;;;;;;55.37;33.87;;;9.70;99.90;;;;;;6216994;23;20170;-86
2021/12/15 04:06:34;;;;;;;59.47;34.10;;;9.70;99.90;;;;;;6216644;23;20175;-84
2021/12/15 04:09:01;;;;;;;57.67;34.27;;;9.70;99.90;;;;;;6217169;23;20174;-83
2021/12/15 04:11:35;;;;;;;60.33;34.73;;;9.70;99.90;;;;;;6216919;23;20198;-85
2021/12/15 04:14:08;;;;;;;60.00;35.63;;;9.70;99.90;;;;;;6216861;23;20178;-85
2021/12/15 04:19:21;;;;;;;65.07;37.33;;;9.70;99.90;;;;;;6216031;23;20181;-84
2021/12/15 04:21:49;;;;;;;64.13;36.67;;;9.60;99.90;;;;;;6216514;23;20170;-83
2021/12/15 04:24:18;;;;;;;67.10;37.77;;;9.60;99.90;;;;;;6216324;23;20186;-84
2021/12/15 04:26:48;;;;;;;67.13;38.83;;;9.70;99.90;;;;;;6217190;23;20206;-84
2021/12/15 04:29:21;;;;;;;64.27;37.07;;;9.70;99.90;;;;;;6216800;23;20163;-84
2021/12/15 04:31:55;;;;;;;63.20;36.33;;;9.70;99.90;;;;;;6217130;23;20175;-84
2021/12/15 04:34:25;;;;;;;65.20;37.63;;;9.60;99.90;;;;;;6217023;23;20446;-83
2021/12/15 04:36:54;;;;;;;68.88;45.95;;;9.50;99.90;;;;;;6215959;23;20406;-85
2021/12/15 04:39:26;;;;;;;69.43;38.30;;;9.60;99.90;;;;;;6216749;23;20166;-87
2021/12/15 04:42:00;;;;;;;62.30;36.87;;;9.70;99.90;;;;;;6217088;23;20169;-83
2021/12/15 04:44:32;;;;;;;61.47;36.83;;;9.80;99.90;;;;;;6215426;23;20167;-82
2021/12/15 04:47:08;;;;;;;57.00;34.77;;;9.80;99.90;;;;;;6216966;23;20191;-84
2021/12/15 04:49:42;;;;;;;58.87;35.17;;;9.80;99.90;;;;;;6216688;23;20636;-85
2021/12/15 04:52:11;;;;;;;59.20;35.80;;;9.70;99.90;;;;;;6217027;23;20173;-83
2021/12/15 04:54:44;;;;;;;55.53;34.17;;;9.80;99.90;;;;;;6216844;23;20179;-85
2021/12/15 04:57:16;;;;;;;49.10;32.27;;;9.70;99.90;;;;;;6217228;23;20181;-83
2021/12/15 04:59:50;;;;;;;51.10;32.50;;;9.70;99.90;;;;;;6217084;23;20177;-84
2021/12/15 05:02:19;;;;;;;47.77;32.77;;;9.70;99.90;;;;;;6216660;23;20178;-84
2021/12/15 05:04:49;;;;;;;52.77;33.80;;;9.60;99.90;;;;;;6216147;23;20174;-84
2021/12/15 05:07:17;;;;;;;58.08;40.78;;;9.70;99.90;;;;;;6216223;23;20391;-86
2021/12/15 05:09:51;;;;;;;52.33;35.70;;;9.70;99.90;;;;;;6216543;23;20167;-86
2021/12/15 05:12:30;;;;;;;54.10;34.87;;;9.60;99.90;;;;;;6219087;23;20198;-88
2021/12/15 05:14:58;;;;;;;54.10;34.30;;;9.60;99.90;;;;;;6220665;23;20638;-86
2021/12/15 05:17:27;;;;;;;50.10;33.70;;;9.60;99.90;;;;;;6220919;23;20174;-83
2021/12/15 05:19:58;;;;;;;57.13;34.10;;;9.60;99.90;;;;;;6220804;23;20166;-85
2021/12/15 05:22:25;;;;;;;52.87;32.93;;;9.60;99.90;;;;;;6220978;23;20238;-83
2021/12/15 05:24:55;;;;;;;56.37;35.30;;;9.60;99.90;;;;;;6220995;23;20213;-85
2021/12/15 05:27:22;;;;;;;57.80;35.07;;;9.70;99.90;;;;;;6219258;23;20163;-86
2021/12/15 05:29:54;;;;;;;55.00;34.90;;;9.70;99.90;;;;;;6218138;23;20201;-84
2021/12/15 05:32:22;;;;;;;53.43;33.53;;;9.60;99.90;;;;;;6221991;23;20237;-86
2021/12/15 05:34:54;;;;;;;52.57;33.80;;;9.70;99.90;;;;;;6220345;23;20689;-87
2021/12/15 05:37:23;;;;;;;54.45;37.05;;;9.70;99.90;;;;;;6219532;23;20441;-83
2021/12/15 05:39:54;;;;;;;51.83;32.97;;;9.70;99.90;;;;;;6221553;23;20170;-85
2021/12/15 05:42:23;;;;;;;54.97;33.63;;;9.70;99.90;;;;;;6219651;23;20178;-86
2021/12/15 05:44:55;;;;;;;53.57;33.70;;;9.80;99.90;;;;;;6219218;23;20170;-84
2021/12/15 05:47:26;;;;;;;51.93;33.57;;;9.70;99.90;;;;;;6218920;23;20224;-86
2021/12/15 05:49:58;;;;;;;50.97;33.03;;;9.80;99.90;;;;;;6218514;23;20175;-83
2021/12/15 05:52:31;;;;;;;51.47;33.13;;;9.80;99.90;;;;;;6217735;23;20174;-82
2021/12/15 05:54:59;;;;;;;57.10;34.07;;;9.80;99.90;;;;;;6216356;23;20637;-85
2021/12/15 05:57:29;;;;;;;52.83;33.43;;;9.80;99.90;;;;;;6217163;23;20555;-84
2021/12/15 05:59:58;;;;;;;50.60;33.33;;;9.80;99.90;;;;;;6215873;23;20250;-84
2021/12/15 06:02:24;;;;;;;53.73;34.50;;;9.80;99.90;;;;;;6215175;23;20626;-83
2021/12/15 06:04:57;;;;;;;54.50;33.83;;;9.70;99.90;;;;;;6215781;23;20253;-84
2021/12/15 06:07:24;;;;;;;55.10;35.40;;;9.60;99.90;;;;;;6215557;23;20202;-82
2021/12/15 06:09:51;;;;;;;62.80;44.03;;;9.60;99.90;;;;;;6215162;23;20399;-84
2021/12/15 06:12:19;;;;;;;60.53;38.07;;;9.70;99.90;;;;;;6216029;23;20197;-83
2021/12/15 06:14:48;;;;;;;56.13;35.40;;;9.80;99.90;;;;;;6216137;23;20253;-83
2021/12/15 06:17:24;;;;;;;56.23;36.53;;;9.70;99.90;;;;;;6215915;23;20171;-84
2021/12/15 06:19:54;;;;;;;51.67;34.70;;;9.70;99.90;;;;;;6215847;23;20169;-86
2021/12/15 06:22:26;;;;;;;56.83;33.83;;;9.60;99.90;;;;;;6216633;23;20162;-83
2021/12/15 06:24:54;;;;;;;53.73;34.27;;;9.60;99.90;;;;;;6216813;23;20186;-82
2021/12/15 06:27:23;;;;;;;56.73;34.57;;;9.70;99.90;;;;;;6215927;23;20202;-82
2021/12/15 06:29:52;;;;;;;53.90;33.80;;;9.70;99.90;;;;;;6216298;23;20245;-84
2021/12/15 06:32:21;;;;;;;48.00;32.07;;;9.80;99.90;;;;;;6215701;23;20253;-85
2021/12/15 06:34:49;;;;;;;55.37;34.17;;;9.80;99.90;;;;;;6215497;23;20166;-84
2021/12/15 06:37:22;;;;;;;51.87;33.07;;;9.90;99.90;;;;;;6216368;23;20166;-84
2021/12/15 06:39:55;;;;;;;59.50;34.97;;;10.00;99.90;;;;;;6215551;23;20167;-83
2021/12/15 06:42:29;;;;;;;59.33;34.80;;;9.90;99.90;;;;;;6215851;23;20166;-85
2021/12/15 06:45:02;;;;;;;61.37;36.13;;;9.90;99.90;;;;;;6216020;23;20167;-82
2021/12/15 06:58:32;;;;;;;58.53;34.93;;;9.70;99.90;;;;;;6218220;23;20189;-84
2021/12/15 07:01:03;;;;;;;67.63;36.87;;;9.70;99.90;;;;;;6217896;23;20181;-83
2021/12/15 07:03:31;;;;;;;65.83;36.30;;;9.80;99.90;;;;;;6218224;23;20167;-83
2021/12/15 07:06:00;;;;;;;60.27;34.87;;;9.80;99.90;;;;;;6218971;23;20294;-84
2021/12/15 07:08:30;;;;;;;62.07;35.47;;;9.80;99.90;;;;;;6218084;23;20163;-83
2021/12/15 07:11:01;;;;;;;56.70;34.63;;;9.80;99.90;;;;;;6218121;23;20304;-84
2021/12/15 07:13:30;;;;;;;59.73;35.47;;;9.80;99.90;;;;;;6192913;23;20189;-86
2021/12/15 07:16:08;;;;;;;59.47;33.97;;;9.90;99.90;;;;;;6219032;23;20213;-87
2021/12/15 07:18:50;;;;;;;59.40;35.67;;;9.80;99.90;;;;;;6219313;23;20171;-86
2021/12/15 07:21:23;;;;;;;54.30;33.30;;;9.80;99.90;;;;;;6219522;23;20218;-84
2021/12/15 07:23:54;;;;;;;53.03;30.40;;;9.70;99.90;;;;;;6220055;23;20186;-84
2021/12/15 07:26:23;;;;;;;53.07;33.83;;;9.70;99.90;;;;;;6218535;23;20538;-83
2021/12/15 07:28:51;;;;;;;54.10;33.23;;;9.70;99.90;;;;;;6222103;23;20267;-82
2021/12/15 07:31:18;;;;;;;63.27;34.37;;;9.80;99.90;;;;;;6218803;23;20192;-86
2021/12/15 07:33:47;;;;;;;56.57;34.77;;;9.90;99.90;;;;;;6218764;23;20181;-86
2021/12/15 07:36:16;;;;;;;53.53;34.00;;;9.80;99.90;;;;;;6220677;23;20173;-86
2021/12/15 07:38:45;;;;;;;56.80;33.93;;;9.80;99.90;;;;;;6219895;23;20175;-87
2021/12/15 07:41:24;;;;;;;57.10;33.47;;;9.70;99.90;;;;;;6217842;23;20167;-88
2021/12/15 07:43:52;;;;;;;57.23;34.87;;;9.80;99.90;;;;;;6218640;23;20175;-89
2021/12/15 07:46:22;;;;;;;61.33;34.73;;;9.80;99.90;;;;;;6218642;23;20230;-87
2021/12/15 07:48:56;;;;;;;54.83;34.17;;;9.80;99.90;;;;;;6218904;23;20178;-87
2021/12/15 07:51:26;;;;;;;56.37;34.27;;;9.70;99.90;;;;;;6218735;23;20166;-89
2021/12/15 07:53:56;;;;;;;54.77;35.20;;;9.80;99.90;;;;;;6219282;23;20163;-88
2021/12/15 07:56:26;;;;;;;54.53;34.10;;;9.80;99.90;;;;;;6218955;23;20159;-89
2021/12/15 07:58:59;;;;;;;53.03;33.70;;;9.90;99.90;;;;;;6218947;23;20614;-87
2021/12/15 08:01:32;;;;;;;47.53;32.17;;;9.80;99.90;;;;;;6218431;23;20214;-88
2021/12/15 08:04:03;;;;;;;50.57;33.07;;;9.80;99.90;;;;;;6219684;23;20167;-88
2021/12/15 08:06:36;;;;;;;49.17;31.37;;;9.80;99.90;;;;;;6220091;23;20195;-85
2021/12/15 08:09:05;;;;;;;51.70;32.37;;;9.80;99.90;;;;;;6219163;23;20229;-86
2021/12/15 08:11:34;;;;;;;54.10;32.87;;;9.80;99.90;;;;;;6218150;23;20198;-83
2021/12/15 08:14:01;;;;;;;52.87;33.13;;;9.90;99.90;;;;;;6217743;23;20162;-83
2021/12/15 08:16:28;;;;;;;52.10;33.60;;;9.90;99.90;;;;;;6216428;23;20178;-86
2021/12/15 08:18:55;;;;;;;50.57;32.47;;;9.90;99.90;;;;;;6216464;23;20174;-80
2021/12/15 08:21:23;;;;;;;52.20;32.17;;;9.90;99.90;;;;;;6216068;23;20170;-82
2021/12/15 08:23:51;;;;;;;49.43;31.70;;;9.90;99.90;;;;;;6216203;23;20163;-82
2021/12/15 08:26:18;;;;;;;56.00;33.23;;;9.90;99.90;;;;;;6216118;23;20213;-85
2021/12/15 08:28:46;;;;;;;55.03;34.27;;;9.90;99.90;;;;;;6216045;23;20179;-81
2021/12/15 08:31:14;;;;;;;52.10;32.63;;;9.80;99.90;;;;;;6216057;23;20633;-82
2021/12/15 08:33:41;;;;;;;51.13;32.43;;;9.90;99.90;;;;;;6216751;23;20167;-83
2021/12/15 08:36:13;;;;;;;50.37;32.33;;;9.80;99.90;;;;;;6216784;23;20173;-87
2021/12/15 08:38:45;;;;;;;49.30;33.17;;;9.80;99.90;;;;;;6216525;23;20541;-86
2021/12/15 08:41:15;;;;;;;47.20;32.10;;;9.70;99.90;;;;;;6216263;23;20506;-88
2021/12/15 08:43:43;;;;;;;54.33;33.43;;;9.70;99.90;;;;;;6216183;23;20162;-88
2021/12/15 08:46:16;;;;;;;50.13;34.23;;;9.70;99.90;;;;;;6216135;23;20192;-89
2021/12/15 08:48:46;;;;;;;49.53;33.23;;;9.70;99.90;;;;;;6217231;23;20615;-84
2021/12/15 08:51:25;;;;;;;49.40;33.10;;;9.80;99.90;;;;;;6216686;23;20167;-86
2021/12/15 08:53:54;;;;;;;47.73;32.93;;;9.70;99.90;;;;;;6217299;23;20167;-85
2021/12/15 08:56:21;;;;;;;54.70;33.23;;;9.70;99.90;;;;;;6216469;23;20491;-83
2021/12/15 08:58:48;;;;;;;49.67;33.10;;;9.70;99.90;;;;;;6216204;23;20167;-79
2021/12/15 09:01:15;;;;;;;50.70;33.67;;;9.60;99.90;;;;;;6215888;23;20502;-78
2021/12/15 09:03:44;;;;;;;47.93;32.67;;;9.70;99.90;;;;;;6216503;23;20163;-85
2021/12/15 09:06:13;;;;;;;44.97;31.27;;;9.60;99.90;;;;;;6216233;23;20197;-86
2021/12/15 09:08:46;;;;;;;48.37;32.70;;;9.70;99.90;;;;;;6216428;23;20170;-89
2021/12/15 09:11:19;;;;;;;48.30;31.40;;;9.70;99.90;;;;;;6215929;23;20198;-85
2021/12/15 09:13:50;;;;;;;46.27;32.63;;;9.70;99.90;;;;;;6216329;23;20186;-85
2021/12/15 09:16:17;;;;;;;46.37;31.63;;;9.70;99.90;;;;;;6216405;23;20194;-91
2021/12/15 09:18:47;;;;;;;47.97;32.83;;;9.70;99.90;;;;;;6216128;23;20219;-85
2021/12/15 09:21:18;;;;;;;45.27;30.40;;;9.80;99.90;;;;;;6215972;23;20609;-87
2021/12/15 09:23:47;;;;;;;46.00;31.33;;;9.80;99.90;;;;;;6216510;23;20170;-87
2021/12/15 09:26:14;;;;;;;40.43;28.80;;;9.70;99.90;;;;;;6214421;23;20189;-86
2021/12/15 09:28:42;;;;;;;43.10;30.13;;;9.90;99.90;;;;;;6214561;23;20720;-81
2021/12/15 09:31:11;;;;;;;45.43;29.93;;;9.90;99.90;;;;;;6215360;23;20167;-84
2021/12/15 09:33:46;;;;;;;40.27;28.93;;;9.90;99.90;;;;;;6214443;23;20175;-83
2021/12/15 09:36:15;;;;;;;40.77;29.20;;;10.00;99.90;;;;;;6215715;23;20162;-86
2021/12/15 09:38:46;;;;;;;44.33;28.60;;;10.00;99.90;;;;;;6215945;23;20242;-84
2021/12/15 09:41:17;;;;;;;39.07;27.87;;;10.00;99.90;;;;;;6215590;23;20250;-85
2021/12/15 09:43:51;;;;;;;41.67;27.30;;;10.00;99.90;;;;;;6216087;23;20169;-88
2021/12/15 09:46:32;;;;;;;39.30;27.37;;;10.00;99.90;;;;;;6216737;23;20185;-88
2021/12/15 09:57:31;;;;;;;37.43;26.13;;;10.20;99.90;;;;;;6216070;23;20195;-88
2021/12/15 10:02:58;;;;;;;33.50;25.33;;;10.60;99.90;;;;;;6216100;23;20194;-84
2021/12/15 10:05:48;;;;;;;34.87;25.30;;;10.60;99.90;;;;;;6217219;23;20611;-86
2021/12/15 10:11:41;;;;;;;33.87;24.73;;;10.50;99.90;;;;;;6216217;23;20197;-86
2021/12/15 10:19:46;;;;;;;31.47;24.23;;;10.50;99.90;;;;;;6217450;23;20174;-82
2021/12/15 10:22:27;;;;;;;28.70;22.60;;;10.50;99.90;;;;;;6218795;23;20218;-84
2021/12/15 10:24:57;;;;;;;29.90;22.83;;;10.50;99.90;;;;;;6218915;23;20190;-85
2021/12/15 10:27:36;;;;;;;30.63;24.80;;;10.60;99.90;;;;;;6218333;23;20212;-83
2021/12/15 10:30:09;;;;;;;30.70;27.38;;;10.50;99.90;;;;;;6216639;23;20393;-83
2021/12/15 10:32:40;;;;;;;27.23;22.67;;;10.40;99.90;;;;;;6217325;23;20163;-81
2021/12/15 10:35:12;;;;;;;28.73;23.10;;;10.50;99.90;;;;;;6217423;23;20167;-81
2021/12/15 10:37:40;;;;;;;28.80;22.90;;;10.50;99.90;;;;;;6217225;23;20538;-83
2021/12/15 10:40:19;;;;;;;26.13;22.40;;;10.50;99.90;;;;;;6217168;23;20167;-82
2021/12/15 10:42:46;;;;;;;31.33;23.37;;;10.60;99.90;;;;;;6217235;23;20170;-82
2021/12/15 10:45:16;;;;;;;26.83;22.03;;;10.60;99.90;;;;;;6216735;23;20180;-83
2021/12/15 10:47:53;;;;;;;32.10;23.60;;;10.50;99.90;;;;;;6216523;23;20676;-81
2021/12/15 10:50:23;;;;;;;30.17;23.77;;;10.60;99.90;;;;;;6216696;23;20632;-80
2021/12/15 10:52:55;;;;;;;29.50;22.50;;;10.70;99.90;;;;;;6216734;23;20610;-81
2021/12/15 10:55:30;;;;;;;27.90;22.67;;;10.70;99.90;;;;;;6216907;23;20169;-80
2021/12/15 10:57:57;;;;;;;28.57;21.43;;;10.70;99.90;;;;;;6217094;23;20170;-80
2021/12/15 11:00:24;;;;;;;29.40;21.40;;;10.80;99.90;;;;;;6216498;23;20163;-80
2021/12/15 11:03:01;;;;;;;29.53;21.10;;;10.80;99.90;;;;;;6216613;23;20493;-81
2021/12/15 11:05:28;;;;;;;30.13;22.20;;;10.80;99.90;;;;;;6216765;23;20162;-80
2021/12/15 11:07:57;;;;;;;26.13;20.90;;;10.80;99.90;;;;;;6216870;23;20195;-82
2021/12/15 11:10:27;;;;;;;26.60;22.50;;;10.70;99.90;;;;;;6216414;23;20670;-81
2021/12/15 11:12:57;;;;;;;27.03;21.37;;;10.70;99.90;;;;;;6216459;23;20182;-81
2021/12/15 11:15:27;;;;;;;26.20;21.57;;;10.70;99.90;;;;;;6216579;23;20194;-80
2021/12/15 11:17:58;;;;;;;24.00;20.93;;;10.70;99.90;;;;;;6216040;23;20182;-82
2021/12/15 11:20:27;;;;;;;26.53;21.40;;;10.80;99.90;;;;;;6216389;23;20170;-81
2021/12/15 11:23:01;;;;;;;26.13;21.00;;;10.90;99.90;;;;;;6216417;23;20225;-80
2021/12/15 11:25:40;;;;;;;24.80;21.33;;;11.00;99.90;;;;;;6215856;23;20514;-82
2021/12/15 11:28:10;;;;;;;25.30;20.50;;;11.00;99.90;;;;;;6216071;23;20202;-80
2021/12/15 11:30:42;;;;;;;24.40;20.63;;;10.80;99.90;;;;;;6216647;23;20500;-80
2021/12/15 11:33:13;;;;;;;24.73;19.33;;;10.80;99.90;;;;;;6215891;23;20683;-83
2021/12/15 11:35:44;;;;;;;26.43;20.37;;;10.90;99.90;;;;;;6216749;23;20168;-82
2021/12/15 11:38:15;;;;;;;24.67;20.10;;;10.90;99.90;;;;;;6216205;23;20159;-81
2021/12/15 11:40:46;;;;;;;25.53;21.00;;;11.00;99.90;;;;;;6215822;23;20163;-80
2021/12/15 11:43:28;;;;;;;24.07;20.70;;;11.00;99.90;;;;;;6216158;23;20162;-82
2021/12/15 11:45:55;;;;;;;27.00;21.10;;;11.00;99.90;;;;;;6215801;23;20631;-79
2021/12/15 11:48:27;;;;;;;27.27;20.60;;;11.00;99.90;;;;;;6215420;23;20190;-79
2021/12/15 11:50:58;;;;;;;26.47;20.97;;;10.90;99.90;;;;;;6215899;23;20164;-78
2021/12/15 11:53:38;;;;;;;27.70;21.67;;;11.00;99.90;;;;;;6215742;23;20171;-79
2021/12/15 11:56:13;;;;;;;24.27;20.40;;;11.00;99.90;;;;;;6216228;23;20494;-79
2021/12/15 11:58:40;;;;;;;27.60;20.73;;;10.80;99.90;;;;;;6215496;23;20183;-79
2021/12/15 12:01:08;;;;;;;22.40;19.97;;;10.80;99.90;;;;;;6216024;23;20199;-79
2021/12/15 12:03:36;;;;;;;25.13;20.87;;;10.90;99.90;;;;;;6216046;23;20160;-78
2021/12/15 12:06:03;;;;;;;27.37;21.33;;;11.00;99.90;;;;;;6216179;23;20163;-77
2021/12/15 12:08:31;;;;;;;27.93;21.60;;;11.00;99.90;;;;;;6215896;23;20210;-79
2021/12/15 12:11:05;;;;;;;25.27;20.60;;;11.00;99.90;;;;;;6216089;23;20249;-78
2021/12/15 12:13:38;;;;;;;29.37;21.00;;;11.10;99.90;;;;;;6215829;23;20175;-78
2021/12/15 12:16:08;;;;;;;26.93;21.03;;;11.10;99.90;;;;;;6216038;23;20623;-79
2021/12/15 12:18:37;;;;;;;24.73;21.40;;;11.20;99.90;;;;;;6216503;23;20170;-79
2021/12/15 12:21:08;;;;;;;25.03;22.30;;;11.20;99.90;;;;;;6215732;23;20164;-79
2021/12/15 12:23:36;;;;;;;29.97;23.03;;;11.20;99.90;;;;;;6215547;23;20187;-81
2021/12/15 12:26:06;;;;;;;26.77;22.60;;;11.30;99.90;;;;;;6215416;23;20254;-78
2021/12/15 12:28:35;;;;;;;29.27;23.80;;;11.40;99.90;;;;;;6214863;23;20686;-81
2021/12/15 12:31:07;;;;;;;31.20;22.70;;;11.40;99.90;;;;;;6208987;23;20176;-79
2021/12/15 12:33:36;;;;;;;28.60;23.77;;;11.40;99.90;;;;;;6214777;23;20168;-79
2021/12/15 12:36:06;;;;;;;29.30;24.07;;;11.40;99.90;;;;;;6215132;23;20171;-80
2021/12/15 12:38:36;;;;;;;28.17;24.03;;;11.40;99.90;;;;;;6214480;23;20171;-79
2021/12/15 12:41:05;;;;;;;28.03;22.87;;;11.40;99.90;;;;;;6215087;23;20165;-80
2021/12/15 12:43:37;;;;;;;27.47;23.00;;;11.30;99.90;;;;;;6214825;23;20176;-77
2021/12/15 12:46:10;;;;;;;26.47;22.53;;;11.40;99.90;;;;;;6215509;23;20498;-79
2021/12/15 12:48:59;;;;;;;32.70;24.27;;;11.40;99.90;;;;;;6214440;23;20573;-80
2021/12/15 13:00:00;;;;;;;25.40;22.07;;;11.60;99.90;;;;;;6214875;23;20248;-78
2021/12/15 13:02:48;;;;;;;27.43;22.50;;;11.60;99.90;;;;;;6214594;23;20171;-79
2021/12/15 13:05:39;;;;;;;29.63;23.97;;;11.50;99.90;;;;;;6215111;23;20604;-79
2021/12/15 13:08:08;;;;;;;28.37;23.50;;;11.40;99.90;;;;;;6214230;23;20239;-80
2021/12/15 13:10:52;;;;;;;29.10;23.93;;;11.30;99.90;;;;;;6214937;23;20169;-78
2021/12/15 13:13:21;;;;;;;30.53;24.53;;;11.50;99.90;;;;;;6214008;23;20263;-79
2021/12/15 13:15:53;;;;;;;27.20;23.20;;;11.40;99.90;;;;;;6214276;23;20187;-82
2021/12/15 13:18:21;;;;;;;28.87;23.30;;;11.40;99.90;;;;;;6214145;23;20619;-79
2021/12/15 13:20:57;;;;;;;32.60;24.10;;;11.30;99.90;;;;;;6214302;23;20214;-79
2021/12/15 13:23:44;;;;;;;26.67;22.93;;;11.20;99.90;;;;;;6214910;23;20355;-79
2021/12/15 13:29:28;;;;;;;31.73;24.77;;;11.30;99.90;;;;;;6122921;23;20212;-81
2021/12/15 13:32:01;;;;;;;31.23;24.00;;;11.30;99.90;;;;;;6123495;23;20174;-83
2021/12/15 13:34:41;;;;;;;31.23;24.00;;;11.30;99.90;;;;;;6178275;23;20630;-81
2021/12/15 13:37:11;;;;;;;28.40;24.03;;;11.20;99.90;;;;;;6214798;23;20247;-82
2021/12/15 13:39:45;;;;;;;30.67;23.23;;;11.30;99.90;;;;;;6215152;23;20182;-82
2021/12/15 13:42:15;;;;;;;30.80;24.93;;;11.30;99.90;;;;;;6215748;23;20215;-81
2021/12/15 13:44:44;;;;;;;26.50;23.20;;;11.10;99.90;;;;;;6215164;23;20249;-79
2021/12/15 13:47:17;;;;;;;30.53;23.97;;;11.10;99.90;;;;;;6215404;23;20179;-79
2021/12/15 13:49:46;;;;;;;30.03;24.13;;;11.10;99.90;;;;;;6215384;23;20673;-80
2021/12/15 13:52:21;;;;;;;31.53;25.23;;;11.10;99.90;;;;;;6216761;23;20248;-81
2021/12/15 13:54:55;;;;;;;34.67;25.10;;;11.00;99.90;;;;;;6216678;23;20171;-84
2021/12/15 13:57:31;;;;;;;31.83;25.53;;;11.00;99.90;;;;;;6218140;23;20714;-81
2021/12/15 14:00:17;;;;;;;27.27;24.27;;;10.90;99.90;;;;;;6218860;23;20173;-80
2021/12/15 14:02:57;;;;;;;33.87;25.20;;;11.00;99.90;;;;;;6216260;23;20187;-83